sensor_id;sensor_type;location;lat;lon;timestamp;temperature;humidity
23267;DHT22;11802;53.160;8.214;2023-08-21T00:02:16;16.70;99.90
23267;DHT22;11802;53.160;8.214;2023-08-21T00:04:42;16.70;99.90
23267;DHT22;11802;53.160;8.214;2023-08-21T00:07:07;16.70;99.90
23267;DHT22;11802;53.160;8.214;2023-08-21T00:09:34;16.70;99.90
23267;DHT22;11802;53.160;8.214;2023-08-21T00:12:00;16.70;99.90
23267;DHT22;11802;53.160;8.214;2023-08-21T00:14:25;16.60;99.90
23267;DHT22;11802;53.160;8.214;2023-08-21T00:16:51;16.60;99.90
23267;DHT22;11802;53.160;8.214;2023-08-21T00:19:16;16.60;99.90
23267;DHT22;11802;53.160;8.214;2023-08-21T00:21:42;16.60;99.90
23267;DHT22;11802;53.160;8.214;2023-08-21T00:24:07;16.50;99.90
23267;DHT22;11802;53.160;8.214;2023-08-21T00:26:33;16.50;99.90
23267;DHT22;11802;53.160;8.214;2023-08-21T00:28:58;16.50;99.90
23267;DHT22;11802;53.160;8.214;2023-08-21T00:31:24;16.60;99.90
23267;DHT22;11802;53.160;8.214;2023-08-21T00:33:49;16.60;99.90
23267;DHT22;11802;53.160;8.214;2023-08-21T00:36:16;16.50;99.90
23267;DHT22;11802;53.160;8.214;2023-08-21T00:38:41;16.50;99.90
23267;DHT22;11802;53.160;8.214;2023-08-21T00:41:07;16.40;99.90
23267;DHT22;11802;53.160;8.214;2023-08-21T00:43:32;16.30;99.90
23267;DHT22;11802;53.160;8.214;2023-08-21T00:45:58;16.30;99.90
23267;DHT22;11802;53.160;8.214;2023-08-21T00:48:24;16.30;99.90
23267;DHT22;11802;53.160;8.214;2023-08-21T00:50:50;16.40;99.90
23267;DHT22;11802;53.160;8.214;2023-08-21T00:53:16;16.30;99.90
23267;DHT22;11802;53.160;8.214;2023-08-21T00:55:41;16.30;99.90
23267;DHT22;11802;53.160;8.214;2023-08-21T00:58:09;16.20;99.90
23267;DHT22;11802;53.160;8.214;2023-08-21T01:00:36;16.10;99.90
23267;DHT22;11802;53.160;8.214;2023-08-21T01:03:02;16.10;99.90
23267;DHT22;11802;53.160;8.214;2023-08-21T01:05:27;16.00;99.90
23267;DHT22;11802;53.160;8.214;2023-08-21T01:11:09;16.00;99.90
23267;DHT22;11802;53.160;8.214;2023-08-21T01:14:03;16.00;99.90
23267;DHT22;11802;53.160;8.214;2023-08-21T01:16:32;15.90;99.90
23267;DHT22;11802;53.160;8.214;2023-08-21T01:18:59;15.80;99.90
23267;DHT22;11802;53.160;8.214;2023-08-21T01:21:26;15.80;99.90
23267;DHT22;11802;53.160;8.214;2023-08-21T01:23:52;15.80;99.90
23267;DHT22;11802;53.160;8.214;2023-08-21T01:26:18;15.70;99.90
23267;DHT22;11802;53.160;8.214;2023-08-21T01:28:43;15.70;99.90
23267;DHT22;11802;53.160;8.214;2023-08-21T01:31:24;15.70;99.90
23267;DHT22;11802;53.160;8.214;2023-08-21T01:33:54;15.70;99.90
23267;DHT22;11802;53.160;8.214;2023-08-21T01:36:22;15.70;99.90
23267;DHT22;11802;53.160;8.214;2023-08-21T01:38:48;15.70;99.90
23267;DHT22;11802;53.160;8.214;2023-08-21T01:41:14;15.60;99.90
23267;DHT22;11802;53.160;8.214;2023-08-21T01:43:39;15.60;99.90
23267;DHT22;11802;53.160;8.214;2023-08-21T01:46:05;15.50;99.90
23267;DHT22;11802;53.160;8.214;2023-08-21T01:48:31;15.50;99.90
23267;DHT22;11802;53.160;8.214;2023-08-21T01:50:56;15.60;99.90
23267;DHT22;11802;53.160;8.214;2023-08-21T01:53:22;15.50;99.90
23267;DHT22;11802;53.160;8.214;2023-08-21T01:55:47;15.50;99.90
23267;DHT22;11802;53.160;8.214;2023-08-21T01:58:13;15.40;99.90
23267;DHT22;11802;53.160;8.214;2023-08-21T02:00:38;15.40;99.90
23267;DHT22;11802;53.160;8.214;2023-08-21T02:03:04;15.40;99.90
23267;DHT22;11802;53.160;8.214;2023-08-21T02:05:30;15.40;99.90
23267;DHT22;11802;53.160;8.214;2023-08-21T02:07:55;15.30;99.90
23267;DHT22;11802;53.160;8.214;2023-08-21T02:10:21;15.30;99.90
23267;DHT22;11802;53.160;8.214;2023-08-21T02:12:46;15.30;99.90
23267;DHT22;11802;53.160;8.214;2023-08-21T02:15:12;15.30;99.90
23267;DHT22;11802;53.160;8.214;2023-08-21T02:17:37;15.30;99.90
23267;DHT22;11802;53.160;8.214;2023-08-21T02:20:03;15.30;99.90
23267;DHT22;11802;53.160;8.214;2023-08-21T02:22:28;15.20;99.90
23267;DHT22;11802;53.160;8.214;2023-08-21T02:24:54;15.20;99.90
23267;DHT22;11802;53.160;8.214;2023-08-21T02:27:19;15.30;99.90
23267;DHT22;11802;53.160;8.214;2023-08-21T02:29:45;15.20;99.90
23267;DHT22;11802;53.160;8.214;2023-08-21T02:32:10;15.20;99.90
23267;DHT22;11802;53.160;8.214;2023-08-21T02:34:36;15.20;99.90
23267;DHT22;11802;53.160;8.214;2023-08-21T02:37:01;15.20;99.90
23267;DHT22;11802;53.160;8.214;2023-08-21T02:39:28;15.20;99.90
23267;DHT22;11802;53.160;8.214;2023-08-21T02:41:54;15.10;99.90
23267;DHT22;11802;53.160;8.214;2023-08-21T02:44:19;15.10;99.90
23267;DHT22;11802;53.160;8.214;2023-08-21T02:46:45;15.10;99.90
23267;DHT22;11802;53.160;8.214;2023-08-21T02:49:10;15.10;99.90
23267;DHT22;11802;53.160;8.214;2023-08-21T02:51:36;15.00;99.90
23267;DHT22;11802;53.160;8.214;2023-08-21T02:54:01;15.00;99.90
23267;DHT22;11802;53.160;8.214;2023-08-21T02:56:27;15.10;99.90
23267;DHT22;11802;53.160;8.214;2023-08-21T02:58:52;15.00;99.90
23267;DHT22;11802;53.160;8.214;2023-08-21T03:01:18;15.00;99.90
23267;DHT22;11802;53.160;8.214;2023-08-21T03:03:43;15.00;99.90
23267;DHT22;11802;53.160;8.214;2023-08-21T03:06:09;15.00;99.90
23267;DHT22;11802;53.160;8.214;2023-08-21T03:08:34;15.00;99.90
23267;DHT22;11802;53.160;8.214;2023-08-21T03:11:00;14.90;99.90
23267;DHT22;11802;53.160;8.214;2023-08-21T03:13:25;14.90;99.90
23267;DHT22;11802;53.160;8.214;2023-08-21T03:15:51;14.90;99.90
23267;DHT22;11802;53.160;8.214;2023-08-21T03:18:17;14.80;99.90
23267;DHT22;11802;53.160;8.214;2023-08-21T03:20:45;14.90;99.90
23267;DHT22;11802;53.160;8.214;2023-08-21T03:23:12;14.80;99.90
23267;DHT22;11802;53.160;8.214;2023-08-21T03:25:37;14.80;99.90
23267;DHT22;11802;53.160;8.214;2023-08-21T03:28:03;14.80;99.90
23267;DHT22;11802;53.160;8.214;2023-08-21T03:30:29;14.70;99.90
23267;DHT22;11802;53.160;8.214;2023-08-21T03:32:54;14.70;99.90
23267;DHT22;11802;53.160;8.214;2023-08-21T03:35:20;14.70;99.90
23267;DHT22;11802;53.160;8.214;2023-08-21T03:37:45;14.70;99.90
23267;DHT22;11802;53.160;8.214;2023-08-21T03:40:11;14.70;99.90
23267;DHT22;11802;53.160;8.214;2023-08-21T03:42:37;14.70;99.90
23267;DHT22;11802;53.160;8.214;2023-08-21T03:45:03;14.70;99.90
23267;DHT22;11802;53.160;8.214;2023-08-21T03:47:30;14.70;99.90
23267;DHT22;11802;53.160;8.214;2023-08-21T03:49:55;14.70;99.90
23267;DHT22;11802;53.160;8.214;2023-08-21T03:52:21;14.70;99.90
23267;DHT22;11802;53.160;8.214;2023-08-21T03:54:46;14.70;99.90
23267;DHT22;11802;53.160;8.214;2023-08-21T03:57:12;14.70;99.90
23267;DHT22;11802;53.160;8.214;2023-08-21T03:59:37;14.70;99.90
23267;DHT22;11802;53.160;8.214;2023-08-21T04:02:03;14.70;99.90
23267;DHT22;11802;53.160;8.214;2023-08-21T04:04:29;14.80;99.90
23267;DHT22;11802;53.160;8.214;2023-08-21T04:06:54;14.80;99.90
23267;DHT22;11802;53.160;8.214;2023-08-21T04:09:19;14.70;99.90
23267;DHT22;11802;53.160;8.214;2023-08-21T04:11:45;14.70;99.90
23267;DHT22;11802;53.160;8.214;2023-08-21T04:14:11;14.70;99.90
23267;DHT22;11802;53.160;8.214;2023-08-21T04:16:36;14.80;99.90
23267;DHT22;11802;53.160;8.214;2023-08-21T04:19:02;14.70;99.90
23267;DHT22;11802;53.160;8.214;2023-08-21T04:21:27;14.70;99.90
23267;DHT22;11802;53.160;8.214;2023-08-21T04:23:53;14.70;99.90
23267;DHT22;11802;53.160;8.214;2023-08-21T04:26:18;14.70;99.90
23267;DHT22;11802;53.160;8.214;2023-08-21T04:28:45;14.80;99.90
23267;DHT22;11802;53.160;8.214;2023-08-21T04:31:11;14.80;99.90
23267;DHT22;11802;53.160;8.214;2023-08-21T04:33:36;14.80;99.90
23267;DHT22;11802;53.160;8.214;2023-08-21T04:36:02;14.80;99.90
23267;DHT22;11802;53.160;8.214;2023-08-21T04:38:27;14.80;99.90
23267;DHT22;11802;53.160;8.214;2023-08-21T04:40:53;14.80;99.90
23267;DHT22;11802;53.160;8.214;2023-08-21T04:43:18;14.80;99.90
23267;DHT22;11802;53.160;8.214;2023-08-21T04:45:51;14.80;99.90
23267;DHT22;11802;53.160;8.214;2023-08-21T04:48:18;14.80;99.90
23267;DHT22;11802;53.160;8.214;2023-08-21T04:50:45;14.80;99.90
23267;DHT22;11802;53.160;8.214;2023-08-21T04:53:11;14.80;99.90
23267;DHT22;11802;53.160;8.214;2023-08-21T04:55:36;14.90;99.90
23267;DHT22;11802;53.160;8.214;2023-08-21T04:58:02;14.90;99.90
23267;DHT22;11802;53.160;8.214;2023-08-21T05:00:28;15.00;99.90
23267;DHT22;11802;53.160;8.214;2023-08-21T05:02:54;15.00;99.90
23267;DHT22;11802;53.160;8.214;2023-08-21T05:05:19;15.10;99.90
23267;DHT22;11802;53.160;8.214;2023-08-21T05:07:45;15.20;99.90
23267;DHT22;11802;53.160;8.214;2023-08-21T05:10:11;15.30;99.90
23267;DHT22;11802;53.160;8.214;2023-08-21T05:12:37;15.40;99.90
23267;DHT22;11802;53.160;8.214;2023-08-21T05:15:02;15.50;99.90
23267;DHT22;11802;53.160;8.214;2023-08-21T05:17:28;15.60;99.90
23267;DHT22;11802;53.160;8.214;2023-08-21T05:19:55;15.70;99.90
23267;DHT22;11802;53.160;8.214;2023-08-21T05:22:20;15.70;99.90
23267;DHT22;11802;53.160;8.214;2023-08-21T05:24:46;15.80;99.90
23267;DHT22;11802;53.160;8.214;2023-08-21T05:27:11;15.90;99.90
23267;DHT22;11802;53.160;8.214;2023-08-21T05:29:36;16.00;99.90
23267;DHT22;11802;53.160;8.214;2023-08-21T05:32:02;16.00;99.90
23267;DHT22;11802;53.160;8.214;2023-08-21T05:34:28;16.10;99.90
23267;DHT22;11802;53.160;8.214;2023-08-21T05:36:53;16.10;99.90
23267;DHT22;11802;53.160;8.214;2023-08-21T05:39:22;16.20;99.90
23267;DHT22;11802;53.160;8.214;2023-08-21T05:41:47;16.30;99.90
23267;DHT22;11802;53.160;8.214;2023-08-21T05:44:13;16.40;99.90
23267;DHT22;11802;53.160;8.214;2023-08-21T05:46:38;16.50;99.90
23267;DHT22;11802;53.160;8.214;2023-08-21T05:49:04;16.60;99.90
23267;DHT22;11802;53.160;8.214;2023-08-21T05:51:30;16.70;99.90
23267;DHT22;11802;53.160;8.214;2023-08-21T05:53:56;16.80;99.90
23267;DHT22;11802;53.160;8.214;2023-08-21T05:56:22;16.80;99.90
23267;DHT22;11802;53.160;8.214;2023-08-21T05:58:47;16.90;99.90
23267;DHT22;11802;53.160;8.214;2023-08-21T06:01:14;17.10;99.90
23267;DHT22;11802;53.160;8.214;2023-08-21T06:03:40;17.20;99.90
23267;DHT22;11802;53.160;8.214;2023-08-21T06:06:05;17.30;99.90
23267;DHT22;11802;53.160;8.214;2023-08-21T06:08:31;17.40;99.90
23267;DHT22;11802;53.160;8.214;2023-08-21T06:10:57;17.50;99.90
23267;DHT22;11802;53.160;8.214;2023-08-21T06:13:22;17.60;99.90
23267;DHT22;11802;53.160;8.214;2023-08-21T06:15:48;17.70;99.90
23267;DHT22;11802;53.160;8.214;2023-08-21T06:18:14;17.80;99.90
23267;DHT22;11802;53.160;8.214;2023-08-21T06:20:42;18.00;99.90
23267;DHT22;11802;53.160;8.214;2023-08-21T06:23:08;18.60;99.90
23267;DHT22;11802;53.160;8.214;2023-08-21T06:25:34;19.80;99.90
23267;DHT22;11802;53.160;8.214;2023-08-21T06:27:59;21.50;99.90
23267;DHT22;11802;53.160;8.214;2023-08-21T06:30:26;23.00;99.90
23267;DHT22;11802;53.160;8.214;2023-08-21T06:32:52;24.40;99.90
23267;DHT22;11802;53.160;8.214;2023-08-21T06:35:17;25.70;1.00
23267;DHT22;11802;53.160;8.214;2023-08-21T06:37:43;26.80;1.00
23267;DHT22;11802;53.160;8.214;2023-08-21T06:40:09;27.90;1.00
23267;DHT22;11802;53.160;8.214;2023-08-21T06:42:35;28.60;99.90
23267;DHT22;11802;53.160;8.214;2023-08-21T06:45:00;29.20;1.00
23267;DHT22;11802;53.160;8.214;2023-08-21T06:47:26;30.00;1.00
23267;DHT22;11802;53.160;8.214;2023-08-21T06:49:51;30.40;99.90
23267;DHT22;11802;53.160;8.214;2023-08-21T06:52:17;30.80;1.00
23267;DHT22;11802;53.160;8.214;2023-08-21T06:54:43;30.90;1.00
23267;DHT22;11802;53.160;8.214;2023-08-21T07:03:33;31.30;1.00
23267;DHT22;11802;53.160;8.214;2023-08-21T07:06:00;31.80;1.00
23267;DHT22;11802;53.160;8.214;2023-08-21T07:08:26;32.00;1.00
23267;DHT22;11802;53.160;8.214;2023-08-21T07:10:52;32.50;1.00
23267;DHT22;11802;53.160;8.214;2023-08-21T07:13:18;32.70;99.90
23267;DHT22;11802;53.160;8.214;2023-08-21T07:15:43;32.60;99.90
23267;DHT22;11802;53.160;8.214;2023-08-21T07:18:09;32.50;99.90
23267;DHT22;11802;53.160;8.214;2023-08-21T07:20:35;32.40;99.90
23267;DHT22;11802;53.160;8.214;2023-08-21T07:23:01;32.60;99.90
23267;DHT22;11802;53.160;8.214;2023-08-21T07:25:26;32.70;99.90
23267;DHT22;11802;53.160;8.214;2023-08-21T07:27:53;32.80;99.90
23267;DHT22;11802;53.160;8.214;2023-08-21T07:30:19;32.70;99.90
23267;DHT22;11802;53.160;8.214;2023-08-21T07:32:45;32.90;99.90
23267;DHT22;11802;53.160;8.214;2023-08-21T07:35:11;33.20;99.90
23267;DHT22;11802;53.160;8.214;2023-08-21T07:37:37;33.90;99.90
23267;DHT22;11802;53.160;8.214;2023-08-21T07:40:08;34.10;99.90
23267;DHT22;11802;53.160;8.214;2023-08-21T07:42:34;34.50;99.90
23267;DHT22;11802;53.160;8.214;2023-08-21T07:44:59;34.60;99.90
23267;DHT22;11802;53.160;8.214;2023-08-21T07:47:27;34.80;99.90
23267;DHT22;11802;53.160;8.214;2023-08-21T07:49:52;34.80;99.90
23267;DHT22;11802;53.160;8.214;2023-08-21T07:52:19;34.60;99.90
23267;DHT22;11802;53.160;8.214;2023-08-21T07:54:44;35.10;99.90
23267;DHT22;11802;53.160;8.214;2023-08-21T07:57:10;35.70;99.90
23267;DHT22;11802;53.160;8.214;2023-08-21T07:59:35;36.00;99.90
23267;DHT22;11802;53.160;8.214;2023-08-21T08:02:01;36.20;99.90
23267;DHT22;11802;53.160;8.214;2023-08-21T08:04:28;35.80;91.20
23267;DHT22;11802;53.160;8.214;2023-08-21T08:06:53;35.70;79.10
23267;DHT22;11802;53.160;8.214;2023-08-21T08:09:19;36.10;71.60
23267;DHT22;11802;53.160;8.214;2023-08-21T08:11:44;35.50;63.90
23267;DHT22;11802;53.160;8.214;2023-08-21T08:14:10;35.30;58.60
23267;DHT22;11802;53.160;8.214;2023-08-21T08:16:45;35.40;52.70
23267;DHT22;11802;53.160;8.214;2023-08-21T08:19:10;35.50;46.50
23267;DHT22;11802;53.160;8.214;2023-08-21T08:21:36;35.60;34.30
23267;DHT22;11802;53.160;8.214;2023-08-21T08:24:02;35.50;31.90
23267;DHT22;11802;53.160;8.214;2023-08-21T08:26:27;35.30;32.80
23267;DHT22;11802;53.160;8.214;2023-08-21T08:28:53;35.50;27.30
23267;DHT22;11802;53.160;8.214;2023-08-21T08:31:20;35.20;24.10
23267;DHT22;11802;53.160;8.214;2023-08-21T08:33:46;35.90;16.70
23267;DHT22;11802;53.160;8.214;2023-08-21T08:36:13;36.40;20.30
23267;DHT22;11802;53.160;8.214;2023-08-21T08:38:38;36.50;14.70
23267;DHT22;11802;53.160;8.214;2023-08-21T08:41:11;36.40;6.10
23267;DHT22;11802;53.160;8.214;2023-08-21T08:43:40;36.30;1.00
23267;DHT22;11802;53.160;8.214;2023-08-21T08:46:07;36.10;2.80
23267;DHT22;11802;53.160;8.214;2023-08-21T08:48:34;36.80;2.10
23267;DHT22;11802;53.160;8.214;2023-08-21T08:51:01;37.10;1.00
23267;DHT22;11802;53.160;8.214;2023-08-21T08:53:29;37.60;1.00
23267;DHT22;11802;53.160;8.214;2023-08-21T08:55:55;37.60;1.00
23267;DHT22;11802;53.160;8.214;2023-08-21T08:58:21;37.50;1.00
23267;DHT22;11802;53.160;8.214;2023-08-21T09:03:52;37.30;1.00
23267;DHT22;11802;53.160;8.214;2023-08-21T09:06:18;37.20;1.00
23267;DHT22;11802;53.160;8.214;2023-08-21T09:08:56;37.10;1.00
23267;DHT22;11802;53.160;8.214;2023-08-21T09:11:23;36.70;1.00
23267;DHT22;11802;53.160;8.214;2023-08-21T09:13:52;37.20;1.00
23267;DHT22;11802;53.160;8.214;2023-08-21T09:16:28;37.20;1.00
23267;DHT22;11802;53.160;8.214;2023-08-21T09:19:02;37.10;1.00
23267;DHT22;11802;53.160;8.214;2023-08-21T09:21:28;36.60;1.00
23267;DHT22;11802;53.160;8.214;2023-08-21T09:23:59;36.40;1.00
23267;DHT22;11802;53.160;8.214;2023-08-21T09:26:31;36.20;1.00
23267;DHT22;11802;53.160;8.214;2023-08-21T09:29:03;35.60;1.00
23267;DHT22;11802;53.160;8.214;2023-08-21T09:31:38;35.50;1.00
23267;DHT22;11802;53.160;8.214;2023-08-21T09:34:04;35.50;1.00
23267;DHT22;11802;53.160;8.214;2023-08-21T09:36:31;34.20;1.00
23267;DHT22;11802;53.160;8.214;2023-08-21T09:38:57;34.20;1.00
23267;DHT22;11802;53.160;8.214;2023-08-21T09:41:25;34.50;1.00
23267;DHT22;11802;53.160;8.214;2023-08-21T09:43:51;34.60;1.00
23267;DHT22;11802;53.160;8.214;2023-08-21T09:46:23;35.00;1.00
23267;DHT22;11802;53.160;8.214;2023-08-21T09:48:49;35.20;1.00
23267;DHT22;11802;53.160;8.214;2023-08-21T09:51:17;34.80;1.00
23267;DHT22;11802;53.160;8.214;2023-08-21T09:53:42;34.80;1.00
23267;DHT22;11802;53.160;8.214;2023-08-21T09:56:08;34.60;1.00
23267;DHT22;11802;53.160;8.214;2023-08-21T09:58:35;34.70;1.00
23267;DHT22;11802;53.160;8.214;2023-08-21T10:01:04;34.80;1.00
23267;DHT22;11802;53.160;8.214;2023-08-21T10:03:41;35.00;1.00
23267;DHT22;11802;53.160;8.214;2023-08-21T10:06:10;35.20;1.00
23267;DHT22;11802;53.160;8.214;2023-08-21T10:08:41;35.50;1.00
23267;DHT22;11802;53.160;8.214;2023-08-21T10:11:08;35.50;1.00
23267;DHT22;11802;53.160;8.214;2023-08-21T10:13:35;35.60;1.00
23267;DHT22;11802;53.160;8.214;2023-08-21T10:16:02;35.30;1.00
23267;DHT22;11802;53.160;8.214;2023-08-21T10:18:32;34.20;1.00
23267;DHT22;11802;53.160;8.214;2023-08-21T10:21:21;33.80;1.00
23267;DHT22;11802;53.160;8.214;2023-08-21T10:23:48;34.10;1.00
23267;DHT22;11802;53.160;8.214;2023-08-21T10:26:14;34.50;1.00
23267;DHT22;11802;53.160;8.214;2023-08-21T10:28:56;34.60;1.00
23267;DHT22;11802;53.160;8.214;2023-08-21T10:31:38;35.40;1.00
23267;DHT22;11802;53.160;8.214;2023-08-21T10:34:09;35.10;1.00
23267;DHT22;11802;53.160;8.214;2023-08-21T10:39:14;35.10;1.00
23267;DHT22;11802;53.160;8.214;2023-08-21T10:42:10;35.20;1.00
23267;DHT22;11802;53.160;8.214;2023-08-21T10:44:54;35.00;1.00
23267;DHT22;11802;53.160;8.214;2023-08-21T10:49:58;35.40;1.00
23267;DHT22;11802;53.160;8.214;2023-08-21T10:52:31;35.20;1.00
23267;DHT22;11802;53.160;8.214;2023-08-21T10:55:01;34.80;1.00
23267;DHT22;11802;53.160;8.214;2023-08-21T10:57:29;34.70;1.00
23267;DHT22;11802;53.160;8.214;2023-08-21T11:02:22;34.70;1.00
23267;DHT22;11802;53.160;8.214;2023-08-21T11:04:50;34.30;1.00
23267;DHT22;11802;53.160;8.214;2023-08-21T11:07:15;34.10;1.00
23267;DHT22;11802;53.160;8.214;2023-08-21T11:09:43;34.50;1.00
23267;DHT22;11802;53.160;8.214;2023-08-21T11:12:14;34.30;1.00
23267;DHT22;11802;53.160;8.214;2023-08-21T11:21:15;34.00;1.00
23267;DHT22;11802;53.160;8.214;2023-08-21T11:23:42;33.50;1.00
23267;DHT22;11802;53.160;8.214;2023-08-21T11:26:11;33.40;1.00
23267;DHT22;11802;53.160;8.214;2023-08-21T11:28:50;33.00;1.00
23267;DHT22;11802;53.160;8.214;2023-08-21T11:31:20;32.20;1.00
23267;DHT22;11802;53.160;8.214;2023-08-21T11:33:50;32.10;1.00
23267;DHT22;11802;53.160;8.214;2023-08-21T11:36:15;32.80;1.00
23267;DHT22;11802;53.160;8.214;2023-08-21T11:38:41;33.10;1.00
23267;DHT22;11802;53.160;8.214;2023-08-21T11:41:07;33.40;1.00
23267;DHT22;11802;53.160;8.214;2023-08-21T11:46:05;33.60;1.00
23267;DHT22;11802;53.160;8.214;2023-08-21T11:48:32;33.70;1.00
23267;DHT22;11802;53.160;8.214;2023-08-21T11:50:58;33.30;1.00
23267;DHT22;11802;53.160;8.214;2023-08-21T11:53:41;33.50;1.00
23267;DHT22;11802;53.160;8.214;2023-08-21T11:56:14;33.60;1.00
23267;DHT22;11802;53.160;8.214;2023-08-21T11:58:40;33.40;1.00
23267;DHT22;11802;53.160;8.214;2023-08-21T12:01:06;32.90;1.00
23267;DHT22;11802;53.160;8.214;2023-08-21T12:03:39;33.10;1.00
23267;DHT22;11802;53.160;8.214;2023-08-21T12:06:09;33.20;1.00
23267;DHT22;11802;53.160;8.214;2023-08-21T12:08:35;32.80;1.00
23267;DHT22;11802;53.160;8.214;2023-08-21T12:11:01;32.70;1.00
23267;DHT22;11802;53.160;8.214;2023-08-21T12:13:27;32.50;1.00
23267;DHT22;11802;53.160;8.214;2023-08-21T12:15:52;31.90;1.00
23267;DHT22;11802;53.160;8.214;2023-08-21T12:18:18;31.80;1.00
23267;DHT22;11802;53.160;8.214;2023-08-21T12:20:43;32.20;1.00
23267;DHT22;11802;53.160;8.214;2023-08-21T12:23:09;32.30;1.00
23267;DHT22;11802;53.160;8.214;2023-08-21T12:25:34;32.30;1.00
23267;DHT22;11802;53.160;8.214;2023-08-21T12:28:00;32.30;1.00
23267;DHT22;11802;53.160;8.214;2023-08-21T12:30:25;32.60;1.00
23267;DHT22;11802;53.160;8.214;2023-08-21T12:32:51;32.60;1.00
23267;DHT22;11802;53.160;8.214;2023-08-21T12:35:16;32.40;1.00
23267;DHT22;11802;53.160;8.214;2023-08-21T12:37:42;32.10;1.00
23267;DHT22;11802;53.160;8.214;2023-08-21T12:40:08;31.50;1.00
23267;DHT22;11802;53.160;8.214;2023-08-21T12:42:34;31.30;1.00
23267;DHT22;11802;53.160;8.214;2023-08-21T12:44:59;31.50;1.00
23267;DHT22;11802;53.160;8.214;2023-08-21T12:47:25;31.80;1.00
23267;DHT22;11802;53.160;8.214;2023-08-21T12:49:51;32.10;1.00
23267;DHT22;11802;53.160;8.214;2023-08-21T12:52:16;32.00;1.00
23267;DHT22;11802;53.160;8.214;2023-08-21T12:54:42;31.60;1.00
23267;DHT22;11802;53.160;8.214;2023-08-21T12:57:08;31.30;1.00
23267;DHT22;11802;53.160;8.214;2023-08-21T12:59:34;31.00;1.00
23267;DHT22;11802;53.160;8.214;2023-08-21T13:02:30;31.10;1.00
23267;DHT22;11802;53.160;8.214;2023-08-21T13:04:59;31.50;1.00
23267;DHT22;11802;53.160;8.214;2023-08-21T13:07:24;31.50;1.00
23267;DHT22;11802;53.160;8.214;2023-08-21T13:09:50;31.20;1.00
23267;DHT22;11802;53.160;8.214;2023-08-21T13:12:15;30.80;1.00
23267;DHT22;11802;53.160;8.214;2023-08-21T13:14:41;30.70;1.00
23267;DHT22;11802;53.160;8.214;2023-08-21T13:17:07;30.40;1.00
23267;DHT22;11802;53.160;8.214;2023-08-21T13:19:32;30.80;1.00
23267;DHT22;11802;53.160;8.214;2023-08-21T13:21:58;31.00;1.00
23267;DHT22;11802;53.160;8.214;2023-08-21T13:24:23;31.30;1.00
23267;DHT22;11802;53.160;8.214;2023-08-21T13:26:49;31.20;1.00
23267;DHT22;11802;53.160;8.214;2023-08-21T13:29:15;31.30;1.00
23267;DHT22;11802;53.160;8.214;2023-08-21T13:31:40;31.00;1.00
23267;DHT22;11802;53.160;8.214;2023-08-21T13:34:05;31.00;1.00
23267;DHT22;11802;53.160;8.214;2023-08-21T13:36:31;30.70;1.00
23267;DHT22;11802;53.160;8.214;2023-08-21T13:38:57;30.50;1.00
23267;DHT22;11802;53.160;8.214;2023-08-21T13:41:23;30.60;1.00
23267;DHT22;11802;53.160;8.214;2023-08-21T13:43:48;30.60;1.00
23267;DHT22;11802;53.160;8.214;2023-08-21T13:46:14;30.70;1.00
23267;DHT22;11802;53.160;8.214;2023-08-21T13:48:40;30.80;1.00
23267;DHT22;11802;53.160;8.214;2023-08-21T13:51:06;30.50;1.00
23267;DHT22;11802;53.160;8.214;2023-08-21T13:53:31;30.90;1.00
23267;DHT22;11802;53.160;8.214;2023-08-21T13:55:57;31.20;1.00
23267;DHT22;11802;53.160;8.214;2023-08-21T13:58:22;30.70;1.00
23267;DHT22;11802;53.160;8.214;2023-08-21T14:00:48;30.80;1.00
23267;DHT22;11802;53.160;8.214;2023-08-21T14:03:13;30.50;1.00
23267;DHT22;11802;53.160;8.214;2023-08-21T14:05:39;30.40;1.00
23267;DHT22;11802;53.160;8.214;2023-08-21T14:08:05;30.20;1.00
23267;DHT22;11802;53.160;8.214;2023-08-21T14:10:30;30.70;1.00
23267;DHT22;11802;53.160;8.214;2023-08-21T14:12:56;31.00;1.00
23267;DHT22;11802;53.160;8.214;2023-08-21T14:15:22;31.40;1.00
23267;DHT22;11802;53.160;8.214;2023-08-21T14:17:48;31.10;1.00
23267;DHT22;11802;53.160;8.214;2023-08-21T14:20:15;30.50;1.00
23267;DHT22;11802;53.160;8.214;2023-08-21T14:22:41;30.50;1.00
23267;DHT22;11802;53.160;8.214;2023-08-21T14:25:07;30.30;1.00
23267;DHT22;11802;53.160;8.214;2023-08-21T14:27:32;30.30;1.00
23267;DHT22;11802;53.160;8.214;2023-08-21T14:29:58;30.30;1.00
23267;DHT22;11802;53.160;8.214;2023-08-21T14:32:24;30.10;1.00
23267;DHT22;11802;53.160;8.214;2023-08-21T14:34:50;29.80;1.00
23267;DHT22;11802;53.160;8.214;2023-08-21T14:37:18;29.70;1.00
23267;DHT22;11802;53.160;8.214;2023-08-21T14:39:43;29.90;1.00
23267;DHT22;11802;53.160;8.214;2023-08-21T14:42:09;29.70;1.00
23267;DHT22;11802;53.160;8.214;2023-08-21T14:44:35;29.70;1.00
23267;DHT22;11802;53.160;8.214;2023-08-21T14:47:00;29.70;1.00
23267;DHT22;11802;53.160;8.214;2023-08-21T14:49:26;29.60;1.00
23267;DHT22;11802;53.160;8.214;2023-08-21T14:51:51;29.60;1.00
23267;DHT22;11802;53.160;8.214;2023-08-21T14:54:17;29.60;1.00
23267;DHT22;11802;53.160;8.214;2023-08-21T14:56:43;29.40;1.00
23267;DHT22;11802;53.160;8.214;2023-08-21T14:59:08;29.20;1.00
23267;DHT22;11802;53.160;8.214;2023-08-21T15:01:37;29.10;1.00
23267;DHT22;11802;53.160;8.214;2023-08-21T15:04:03;29.10;1.00
23267;DHT22;11802;53.160;8.214;2023-08-21T15:06:28;29.10;1.00
23267;DHT22;11802;53.160;8.214;2023-08-21T15:08:54;29.00;1.00
23267;DHT22;11802;53.160;8.214;2023-08-21T15:11:19;29.00;1.00
23267;DHT22;11802;53.160;8.214;2023-08-21T15:13:45;28.90;1.00
23267;DHT22;11802;53.160;8.214;2023-08-21T15:16:10;28.70;1.00
23267;DHT22;11802;53.160;8.214;2023-08-21T15:18:36;28.60;1.00
23267;DHT22;11802;53.160;8.214;2023-08-21T15:21:02;28.60;1.00
23267;DHT22;11802;53.160;8.214;2023-08-21T15:23:27;28.60;1.00
23267;DHT22;11802;53.160;8.214;2023-08-21T15:25:53;28.70;1.00
23267;DHT22;11802;53.160;8.214;2023-08-21T15:28:19;28.70;1.00
23267;DHT22;11802;53.160;8.214;2023-08-21T15:30:44;28.80;1.00
23267;DHT22;11802;53.160;8.214;2023-08-21T15:33:10;29.00;1.00
23267;DHT22;11802;53.160;8.214;2023-08-21T15:35:36;28.90;1.00
23267;DHT22;11802;53.160;8.214;2023-08-21T15:38:01;28.80;1.00
23267;DHT22;11802;53.160;8.214;2023-08-21T15:40:28;28.70;1.00
23267;DHT22;11802;53.160;8.214;2023-08-21T15:42:54;28.70;1.00
23267;DHT22;11802;53.160;8.214;2023-08-21T15:45:20;28.60;1.00
23267;DHT22;11802;53.160;8.214;2023-08-21T15:47:48;28.50;1.00
23267;DHT22;11802;53.160;8.214;2023-08-21T15:50:14;28.20;1.00
23267;DHT22;11802;53.160;8.214;2023-08-21T15:52:40;28.10;1.00
23267;DHT22;11802;53.160;8.214;2023-08-21T15:55:06;28.10;1.00
23267;DHT22;11802;53.160;8.214;2023-08-21T15:57:32;28.20;1.00
23267;DHT22;11802;53.160;8.214;2023-08-21T15:59:58;28.20;1.00
23267;DHT22;11802;53.160;8.214;2023-08-21T16:02:23;28.10;1.00
23267;DHT22;11802;53.160;8.214;2023-08-21T16:04:49;27.90;1.00